Gouwestroom — PDGR — position and weather

sailwx.info

Track history (hours):
 
Tides and Currents Weather Stations Pressure Air Temp Water Temp Dewpoint Dewpoint Depression Visibility Wind Speed Wind Dir Waves Ship Positions

Gouwestroom

Last reported at 2016-Sep-22 12:33 UTC. Time now 2016-Sep-25 19:12 UTC.
Position N 51°55' E 004°34'.

Length 20 m; draft 2.2 m.

Type: Tug. MMSI: 246166000.

Date/timePositionNaut miles runAvg speedWind from/ knotsBaromVisibWave heightAir tempDewpointWater temp
2016-Sep-22 12:33N 51°55' E 004°34'13 1.6
2016-Sep-22 04:33N 51°49' E 004°53'0 0.0
2016-Sep-22 03:33N 51°49' E 004°53'0 0.0
2016-Sep-22 00:33N 51°49' E 004°53'0 0.0
2016-Sep-21 23:33N 51°49' E 004°53'0 0.0
2016-Sep-21 22:33N 51°49' E 004°53'0 0.0
2016-Sep-21 19:33N 51°49' E 004°53'0 0.0
2016-Sep-21 16:33N 51°49' E 004°53'0 0.0
2016-Sep-21 09:33N 51°49' E 004°53'0 0.0
2016-Sep-21 08:33N 51°49' E 004°53'0 0.0
2016-Sep-21 05:33N 51°49' E 004°53'0 0.0
2016-Sep-21 03:33N 51°49' E 004°53'0 0.0
2016-Sep-21 02:33N 51°49' E 004°53'99 6.2
2016-Sep-20 10:32N 51°28' E 002°16'12 5.9
2016-Sep-20 08:33N 51°18' E 002°07'7 6.6
2016-Sep-20 07:33N 51°13' E 002°00'7 7.2
2016-Sep-20 06:33N 51°08' E 001°51'106 7.6
2016-Sep-19 16:33N 50°40' W 000°51'13 6.5
2016-Sep-19 14:33N 50°48' W 001°07'0 0.0
2016-Sep-19 13:33N 50°48' W 001°07'2 1.7
2016-Sep-19 12:33N 50°47' W 001°06'1 0.8
2016-Sep-19 11:33N 50°46' W 001°06'2 1.2
2016-Sep-19 09:34N 50°48' W 001°07'0 0.1
2016-Sep-19 07:33N 50°48' W 001°07'0 0.1
2016-Sep-19 06:33N 50°48' W 001°07'0 0.0
2016-Sep-19 03:33N 50°48' W 001°07'0 0.0
2016-Sep-19 02:33N 50°48' W 001°07'0 0.0
2016-Sep-19 00:34N 50°48' W 001°07'0 0.0
2016-Sep-18 19:33N 50°48' W 001°07'2 0.6
2016-Sep-18 15:33N 50°46' W 001°06'0 0.0
2016-Sep-18 14:33N 50°46' W 001°06'0 0.0
2016-Sep-18 10:33N 50°46' W 001°06'0 0.0
2016-Sep-18 09:33N 50°46' W 001°06'2 0.3
2016-Sep-18 02:34N 50°48' W 001°07'0 0.0
2016-Sep-18 01:33N 50°48' W 001°07'0 0.0
2016-Sep-18 00:33N 50°48' W 001°07'0 0.0
2016-Sep-17 22:33N 50°48' W 001°07'0 0.0
2016-Sep-17 21:33N 50°48' W 001°07'0 0.0
2016-Sep-17 20:33N 50°48' W 001°07'0 0.0
2016-Sep-17 19:16N 50°48' W 001°07'0 0.0
2016-Sep-17 13:33N 50°48' W 001°07'0 0.0
2016-Sep-17 12:33N 50°48' W 001°07'0 0.0
2016-Sep-17 10:33N 50°48' W 001°07'0 0.0
2016-Sep-17 09:33N 50°48' W 001°07'0 0.0
2016-Sep-17 08:33N 50°48' W 001°07'0 0.0
2016-Sep-17 07:34N 50°48' W 001°07'0 0.0
2016-Sep-17 05:33N 50°48' W 001°07'0 0.0
2016-Sep-17 04:33N 50°48' W 001°07'0 0.0
2016-Sep-17 00:33N 50°48' W 001°07'0 0.0
2016-Sep-16 17:33N 50°48' W 001°07'0 0.1
2016-Sep-16 15:33N 50°48' W 001°07'0 0.0
2016-Sep-16 12:33N 50°48' W 001°07'0 0.0
2016-Sep-16 09:33N 50°48' W 001°07'0 0.0
2016-Sep-16 07:33N 50°48' W 001°07'0 0.0
2016-Sep-16 03:34N 50°48' W 001°07'0 0.0
2016-Sep-16 02:33N 50°48' W 001°07'0 0.0
2016-Sep-16 00:34N 50°48' W 001°07'0 0.0
2016-Sep-15 22:34N 50°48' W 001°07'0 0.0
2016-Sep-15 21:33N 50°48' W 001°07'0 0.0
2016-Sep-15 20:33N 50°48' W 001°07'0 0.0
2016-Sep-15 18:34N 50°48' W 001°07'0 0.0
2016-Sep-15 12:34N 50°48' W 001°07'0 0.1
2016-Sep-15 11:33N 50°48' W 001°07'0 0.0
2016-Sep-15 04:33N 50°48' W 001°07'0 0.0
2016-Sep-15 03:34N 50°48' W 001°07'0 0.0
2016-Sep-15 01:34N 50°48' W 001°07'0 0.0
2016-Sep-14 22:33N 50°48' W 001°07'0 0.0
2016-Sep-14 21:34N 50°48' W 001°07'2 0.6
2016-Sep-14 17:34N 50°46' W 001°06'0 0.0
2016-Sep-14 16:33N 50°46' W 001°06'0 0.0
2016-Sep-14 13:34N 50°46' W 001°06'1 0.9
2016-Sep-14 12:33N 50°47' W 001°06'1 0.7
2016-Sep-14 10:34N 50°48' W 001°07'0 0.0
2016-Sep-14 09:33N 50°48' W 001°07'0 0.0
2016-Sep-14 08:34N 50°48' W 001°07'0 0.0
2016-Sep-14 07:33N 50°48' W 001°07'0 0.0
2016-Sep-14 06:33N 50°48' W 001°07'0 0.0
2016-Sep-14 03:33N 50°48' W 001°07'0 0.0
2016-Sep-13 22:33N 50°48' W 001°07'0 0.0
2016-Sep-13 20:34N 50°48' W 001°07'0 0.0
2016-Sep-13 18:33N 50°48' W 001°07'0 0.0
2016-Sep-13 17:33N 50°48' W 001°07'0 0.1
2016-Sep-13 16:34N 50°48' W 001°07'2 0.5
2016-Sep-13 11:34N 50°46' W 001°06'2 1.2
2016-Sep-13 09:32N 50°48' W 001°07'0 0.0
2016-Sep-13 07:31N 50°48' W 001°07'0 0.0
2016-Sep-13 06:31N 50°48' W 001°07'0 0.0
2016-Sep-13 04:31N 50°48' W 001°07'0 0.0
2016-Sep-13 02:31N 50°48' W 001°07'0 0.0
2016-Sep-12 23:31N 50°48' W 001°07'0 0.0
2016-Sep-12 21:31N 50°48' W 001°07'0 0.0
2016-Sep-12 19:31N 50°48' W 001°07'0 0.0
2016-Sep-12 17:31N 50°48' W 001°07'0 0.0
2016-Sep-12 14:33N 50°48' W 001°07'0 0.0
2016-Sep-12 13:33N 50°48' W 001°07'0 0.0
2016-Sep-12 12:33N 50°48' W 001°07'  
Track history (hours):
 
Tides and Currents Weather Stations Pressure Air Temp Water Temp Dewpoint Dewpoint Depression Visibility Wind Speed Wind Dir Waves Ship Positions

Gouwestroom

Last reported at 2016-Sep-22 12:33 UTC. Time now 2016-Sep-25 19:12 UTC.
Position N 51°55' E 004°34'.

Length 20 m; draft 2.2 m.

Type: Tug. MMSI: 246166000.

Date/timePositionNaut miles runAvg speedWind from/ knotsBaromVisibWave heightAir tempDewpointWater temp
2016-Sep-22 12:33N 51°55' E 004°34'13 1.6
2016-Sep-22 04:33N 51°49' E 004°53'0 0.0
2016-Sep-22 03:33N 51°49' E 004°53'0 0.0
2016-Sep-22 00:33N 51°49' E 004°53'0 0.0
2016-Sep-21 23:33N 51°49' E 004°53'0 0.0
2016-Sep-21 22:33N 51°49' E 004°53'0 0.0
2016-Sep-21 19:33N 51°49' E 004°53'0 0.0
2016-Sep-21 16:33N 51°49' E 004°53'0 0.0
2016-Sep-21 09:33N 51°49' E 004°53'0 0.0
2016-Sep-21 08:33N 51°49' E 004°53'0 0.0
2016-Sep-21 05:33N 51°49' E 004°53'0 0.0
2016-Sep-21 03:33N 51°49' E 004°53'0 0.0
2016-Sep-21 02:33N 51°49' E 004°53'99 6.2
2016-Sep-20 10:32N 51°28' E 002°16'12 5.9
2016-Sep-20 08:33N 51°18' E 002°07'7 6.6
2016-Sep-20 07:33N 51°13' E 002°00'7 7.2
2016-Sep-20 06:33N 51°08' E 001°51'106 7.6
2016-Sep-19 16:33N 50°40' W 000°51'13 6.5
2016-Sep-19 14:33N 50°48' W 001°07'0 0.0
2016-Sep-19 13:33N 50°48' W 001°07'2 1.7
2016-Sep-19 12:33N 50°47' W 001°06'1 0.8
2016-Sep-19 11:33N 50°46' W 001°06'2 1.2
2016-Sep-19 09:34N 50°48' W 001°07'0 0.1
2016-Sep-19 07:33N 50°48' W 001°07'0 0.1
2016-Sep-19 06:33N 50°48' W 001°07'0 0.0
2016-Sep-19 03:33N 50°48' W 001°07'0 0.0
2016-Sep-19 02:33N 50°48' W 001°07'0 0.0
2016-Sep-19 00:34N 50°48' W 001°07'0 0.0
2016-Sep-18 19:33N 50°48' W 001°07'2 0.6
2016-Sep-18 15:33N 50°46' W 001°06'0 0.0
2016-Sep-18 14:33N 50°46' W 001°06'0 0.0
2016-Sep-18 10:33N 50°46' W 001°06'0 0.0
2016-Sep-18 09:33N 50°46' W 001°06'2 0.3
2016-Sep-18 02:34N 50°48' W 001°07'0 0.0
2016-Sep-18 01:33N 50°48' W 001°07'0 0.0
2016-Sep-18 00:33N 50°48' W 001°07'0 0.0
2016-Sep-17 22:33N 50°48' W 001°07'0 0.0
2016-Sep-17 21:33N 50°48' W 001°07'0 0.0
2016-Sep-17 20:33N 50°48' W 001°07'0 0.0
2016-Sep-17 19:16N 50°48' W 001°07'0 0.0
2016-Sep-17 13:33N 50°48' W 001°07'0 0.0
2016-Sep-17 12:33N 50°48' W 001°07'0 0.0
2016-Sep-17 10:33N 50°48' W 001°07'0 0.0
2016-Sep-17 09:33N 50°48' W 001°07'0 0.0
2016-Sep-17 08:33N 50°48' W 001°07'0 0.0
2016-Sep-17 07:34N 50°48' W 001°07'0 0.0
2016-Sep-17 05:33N 50°48' W 001°07'0 0.0
2016-Sep-17 04:33N 50°48' W 001°07'0 0.0
2016-Sep-17 00:33N 50°48' W 001°07'0 0.0
2016-Sep-16 17:33N 50°48' W 001°07'0 0.1
2016-Sep-16 15:33N 50°48' W 001°07'0 0.0
2016-Sep-16 12:33N 50°48' W 001°07'0 0.0
2016-Sep-16 09:33N 50°48' W 001°07'0 0.0
2016-Sep-16 07:33N 50°48' W 001°07'0 0.0
2016-Sep-16 03:34N 50°48' W 001°07'0 0.0
2016-Sep-16 02:33N 50°48' W 001°07'0 0.0
2016-Sep-16 00:34N 50°48' W 001°07'0 0.0
2016-Sep-15 22:34N 50°48' W 001°07'0 0.0
2016-Sep-15 21:33N 50°48' W 001°07'0 0.0
2016-Sep-15 20:33N 50°48' W 001°07'0 0.0
2016-Sep-15 18:34N 50°48' W 001°07'0 0.0
2016-Sep-15 12:34N 50°48' W 001°07'0 0.1
2016-Sep-15 11:33N 50°48' W 001°07'0 0.0
2016-Sep-15 04:33N 50°48' W 001°07'0 0.0
2016-Sep-15 03:34N 50°48' W 001°07'0 0.0
2016-Sep-15 01:34N 50°48' W 001°07'0 0.0
2016-Sep-14 22:33N 50°48' W 001°07'0 0.0
2016-Sep-14 21:34N 50°48' W 001°07'2 0.6
2016-Sep-14 17:34N 50°46' W 001°06'0 0.0
2016-Sep-14 16:33N 50°46' W 001°06'0 0.0
2016-Sep-14 13:34N 50°46' W 001°06'1 0.9
2016-Sep-14 12:33N 50°47' W 001°06'1 0.7
2016-Sep-14 10:34N 50°48' W 001°07'0 0.0
2016-Sep-14 09:33N 50°48' W 001°07'0 0.0
2016-Sep-14 08:34N 50°48' W 001°07'0 0.0
2016-Sep-14 07:33N 50°48' W 001°07'0 0.0
2016-Sep-14 06:33N 50°48' W 001°07'0 0.0
2016-Sep-14 03:33N 50°48' W 001°07'0 0.0
2016-Sep-13 22:33N 50°48' W 001°07'0 0.0
2016-Sep-13 20:34N 50°48' W 001°07'0 0.0
2016-Sep-13 18:33N 50°48' W 001°07'0 0.0
2016-Sep-13 17:33N 50°48' W 001°07'0 0.1
2016-Sep-13 16:34N 50°48' W 001°07'2 0.5
2016-Sep-13 11:34N 50°46' W 001°06'2 1.2
2016-Sep-13 09:32N 50°48' W 001°07'0 0.0
2016-Sep-13 07:31N 50°48' W 001°07'0 0.0
2016-Sep-13 06:31N 50°48' W 001°07'0 0.0
2016-Sep-13 04:31N 50°48' W 001°07'0 0.0
2016-Sep-13 02:31N 50°48' W 001°07'0 0.0
2016-Sep-12 23:31N 50°48' W 001°07'0 0.0
2016-Sep-12 21:31N 50°48' W 001°07'0 0.0
2016-Sep-12 19:31N 50°48' W 001°07'0 0.0
2016-Sep-12 17:31N 50°48' W 001°07'0 0.0
2016-Sep-12 14:33N 50°48' W 001°07'0 0.0
2016-Sep-12 13:33N 50°48' W 001°07'0 0.0
2016-Sep-12 12:33N 50°48' W 001°07'  

Dump ship's entire track history